Impacts TAF Board
For situational awareness. Not to be used for flight planning purposes.
IDs:

KIAH - Houston/Bush Intl, TX, US

Issued at 0859 UTC 25 Oct 2020
Updated at 1024 UTC 25 Oct 2020
Potential Impact None Slight Moderate High
Time0953Z 25/11Z 25/12Z 25/13Z 25/14Z 25/15Z 25/16Z 25/17Z 25/18Z 25/19Z 25/20Z 25/21Z 25/22Z 25/23Z>>
Type OBS PRVL PRVL PRVL PRVL PRVL PRVL PRVL PRVL PRVL PRVL PRVL PRVL PRVL
VIS 10 >6 >6 >6 >6 >6 >6 >6 >6 >6 >6 >6 >6 >6
CIG -- 20 20 20 20 25 25 25 25 25 25 25 25 25
Cover SCT OVC OVC OVC OVC BKN BKN BKN BKN BKN BKN BKN BKN BKN
FltCat VFR MVFR MVFR MVFR MVFR MVFR MVFR MVFR MVFR MVFR MVFR MVFR MVFR MVFR
WX -- -- -- -- -- -- -- -- -- -- -- -- -- --
WDir VRB VRB VRB VRB VRB 160 160 160 160 160 130 130 130 130
WSpd 3 3 3 3 3 6 6 6 6 6 10 10 10 10
WGst -- -- -- -- -- -- -- -- -- -- -- -- -- --
R08/26
XWnd VRB VRB VRB VRB VRB -6 -6 -6 -6 -6 -6 -6 -6 -6
HWnd VRB VRB VRB VRB VRB 2 2 2 2 2 8 8 8 8
R09/27
XWnd VRB VRB VRB VRB VRB -6 -6 -6 -6 -6 -6 -6 -6 -6
HWnd VRB VRB VRB VRB VRB 2 2 2 2 2 8 8 8 8
R15/33
XWnd VRB VRB VRB VRB VRB -1 -1 -1 -1 -1 4 4 4 4
HWnd VRB VRB VRB VRB VRB 6 6 6 6 6 9 9 9 9
Raw TAF
KIAH 250859Z 2509/2612 VRB03KT P6SM SCT025
  FM251000 VRB03KT P6SM OVC020
  FM251500 16006KT P6SM BKN025 BKN040
  FM252000 13010KT P6SM BKN025
  FM260600 12008KT P6SM OVC015


Raw METAR
KIAH 250953Z VRB03KT 10SM SCT023 16/14 A2995 RMK AO2 SLP141 T01560139
KIAH 250853Z 09003KT 10SM SCT031 15/13 A2995 RMK AO2 SLP141 T01500133 58005
KIAH 250753Z 10004KT 10SM SCT025 15/14 A2996 RMK AO2 SLP144 T01500139

METAR Board
Radar Display
Forecast Discussion
For situational awareness. Not to be used for flight planning purposes.